Time;durP1;ratioP1;P1;durP2;ratioP2;P2;SDS_P1;SDS_P2;PMS_P1;PMS_P2;Temp;Humidity;BMP_temperature;BMP_pressure;BME280_temperature;BME280_humidity;BME280_pressure;Samples;Min_cycle;Max_cycle;Signal;HPM_P1;HPM_P2
2023/07/26 00:01:35;;;;;;;4.07;2.47;;;12.00;99.90;;;;;;5091208;27;20031;-82
2023/07/26 00:04:00;;;;;;;4.47;2.42;;;12.00;99.90;;;;;;5119632;27;20030;-81
2023/07/26 00:06:28;;;;;;;5.20;2.70;;;12.00;99.90;;;;;;5096850;27;20039;-82
2023/07/26 00:08:54;;;;;;;5.70;3.00;;;12.00;99.90;;;;;;5100682;27;20113;-82
2023/07/26 00:11:23;;;;;;;7.07;3.10;;;12.00;99.90;;;;;;5100408;27;20038;-82
2023/07/26 00:13:48;;;;;;;3.60;2.83;;;12.00;99.90;;;;;;5111418;27;20035;-82
2023/07/26 00:16:14;;;;;;;4.00;3.10;;;12.00;99.90;;;;;;5081409;27;20042;-81
2023/07/26 00:18:40;;;;;;;4.30;2.90;;;12.00;99.90;;;;;;5092331;27;20035;-82
2023/07/26 00:21:06;;;;;;;6.47;3.00;;;12.00;99.90;;;;;;5084822;27;20048;-82
2023/07/26 00:23:32;;;;;;;5.15;3.10;;;12.00;99.90;;;;;;5109740;27;20034;-82
2023/07/26 00:25:58;;;;;;;5.53;3.33;;;12.10;99.90;;;;;;5094372;27;20036;-82
2023/07/26 00:28:23;;;;;;;5.88;3.55;;;12.00;99.90;;;;;;5109437;27;20078;-82
2023/07/26 00:30:49;;;;;;;8.02;3.55;;;12.00;99.90;;;;;;5112084;27;20074;-82
2023/07/26 00:33:15;;;;;;;5.70;3.35;;;12.00;99.90;;;;;;5093370;27;20038;-82
2023/07/26 00:35:42;;;;;;;5.00;3.42;;;12.00;99.90;;;;;;5102838;27;20046;-81
2023/07/26 00:38:08;;;;;;;5.50;3.08;;;12.00;99.90;;;;;;5110565;27;20480;-82
2023/07/26 00:40:36;;;;;;;5.03;3.33;;;12.00;99.90;;;;;;5095810;27;20044;-81
2023/07/26 00:43:03;;;;;;;5.25;3.20;;;12.00;99.90;;;;;;5111980;27;20046;-82
2023/07/26 00:45:32;;;;;;;6.10;3.42;;;11.90;99.90;;;;;;5108300;27;20047;-81
2023/07/26 00:47:58;;;;;;;5.03;3.50;;;11.90;99.90;;;;;;5095213;27;20664;-82
2023/07/26 00:50:25;;;;;;;12.00;3.90;;;11.90;99.90;;;;;;5089604;27;20506;-81
2023/07/26 00:52:51;;;;;;;4.43;3.30;;;11.90;99.90;;;;;;5107207;27;20051;-81
2023/07/26 00:55:17;;;;;;;6.93;3.17;;;11.90;99.90;;;;;;5106283;27;20038;-82
2023/07/26 00:57:45;;;;;;;4.68;3.40;;;11.90;99.90;;;;;;5095259;27;20046;-82
2023/07/26 01:00:11;;;;;;;5.00;3.15;;;11.90;99.90;;;;;;5100699;27;20035;-82
2023/07/26 01:02:37;;;;;;;6.88;3.65;;;11.90;99.90;;;;;;5114666;27;20459;-82
2023/07/26 01:05:04;;;;;;;4.72;3.42;;;11.90;99.90;;;;;;5104071;27;20043;-82
2023/07/26 01:07:43;;;;;;;6.50;3.47;;;11.90;99.90;;;;;;5097428;27;20072;-81
2023/07/26 01:10:27;;;;;;;6.13;3.90;;;11.90;99.90;;;;;;5099105;27;20126;-82
2023/07/26 01:13:07;;;;;;;7.53;3.70;;;11.90;99.90;;;;;;5115840;27;20066;-82
2023/07/26 01:15:37;;;;;;;6.85;3.40;;;11.90;99.90;;;;;;5110898;27;20047;-82
2023/07/26 01:18:14;;;;;;;7.15;3.72;;;12.00;99.90;;;;;;5106918;27;20040;-82
2023/07/26 01:20:40;;;;;;;5.95;4.00;;;12.00;99.90;;;;;;5105202;27;20050;-82
2023/07/26 01:23:06;;;;;;;6.45;4.20;;;12.00;99.90;;;;;;5101817;27;20040;-82
2023/07/26 01:25:32;;;;;;;7.97;3.78;;;12.00;99.90;;;;;;5107684;27;20040;-82
2023/07/26 01:27:58;;;;;;;6.40;4.30;;;12.00;99.90;;;;;;5108762;27;20050;-82
2023/07/26 01:30:29;;;;;;;6.25;4.05;;;11.90;99.90;;;;;;5094793;27;20031;-82
2023/07/26 01:33:01;;;;;;;7.78;4.25;;;11.90;99.90;;;;;;5086787;27;20043;-82
2023/07/26 01:35:28;;;;;;;6.30;3.92;;;11.90;99.90;;;;;;5103250;27;20043;-82
2023/07/26 01:37:55;;;;;;;6.32;3.72;;;11.90;99.90;;;;;;5093897;27;20226;-82
2023/07/26 01:40:22;;;;;;;6.55;4.18;;;11.80;99.90;;;;;;5085684;27;20454;-82
2023/07/26 01:42:49;;;;;;;6.78;4.30;;;11.80;99.90;;;;;;5112117;27;20417;-82
2023/07/26 01:45:15;;;;;;;6.53;4.22;;;11.80;99.90;;;;;;5109415;27;20081;-82
2023/07/26 01:47:41;;;;;;;7.13;4.15;;;11.80;99.90;;;;;;5111057;27;20035;-82
2023/07/26 01:50:08;;;;;;;5.80;4.22;;;11.70;99.90;;;;;;5107965;27;20043;-82
2023/07/26 01:52:33;;;;;;;5.65;4.22;;;11.60;99.90;;;;;;5088896;27;20038;-82
2023/07/26 01:55:00;;;;;;;7.55;4.65;;;11.60;99.90;;;;;;5091509;27;20083;-82
2023/07/26 01:57:26;;;;;;;5.72;4.20;;;11.60;99.90;;;;;;5094646;27;20043;-82
2023/07/26 01:59:53;;;;;;;8.75;5.05;;;11.60;99.90;;;;;;5124393;27;20034;-82
2023/07/26 02:02:18;;;;;;;5.60;4.47;;;11.50;99.90;;;;;;5091007;27;20453;-82
2023/07/26 02:04:44;;;;;;;7.85;4.18;;;11.40;99.90;;;;;;5109036;27;20581;-82
2023/07/26 02:07:10;;;;;;;6.95;4.22;;;11.40;99.90;;;;;;5109810;27;20039;-82
2023/07/26 02:09:36;;;;;;;7.32;4.30;;;11.40;99.90;;;;;;5086707;27;20059;-82
2023/07/26 02:12:02;;;;;;;7.45;3.78;;;11.20;99.90;;;;;;5128613;27;20485;-82
2023/07/26 02:14:28;;;;;;;5.80;4.15;;;11.20;99.90;;;;;;5081622;27;20103;-82
2023/07/26 02:16:53;;;;;;;7.45;4.47;;;11.20;99.90;;;;;;5113197;27;20396;-82
2023/07/26 02:19:19;;;;;;;7.20;4.22;;;11.20;99.90;;;;;;5091263;27;20634;-83
2023/07/26 02:21:48;;;;;;;4.95;3.95;;;11.10;99.90;;;;;;5122918;27;20516;-82
2023/07/26 02:24:14;;;;;;;7.32;4.43;;;11.10;99.90;;;;;;5083100;27;20106;-82
2023/07/26 02:26:39;;;;;;;6.68;3.78;;;11.10;99.90;;;;;;5089456;27;20445;-82
2023/07/26 02:29:05;;;;;;;6.88;4.35;;;11.00;99.90;;;;;;5102466;27;20043;-82
2023/07/26 02:31:31;;;;;;;4.63;3.78;;;10.90;99.90;;;;;;5103065;27;20028;-82
2023/07/26 02:33:56;;;;;;;5.93;4.43;;;10.90;99.90;;;;;;5095797;27;20163;-82
2023/07/26 02:36:23;;;;;;;5.10;4.45;;;11.00;99.90;;;;;;5122197;27;20508;-82
2023/07/26 02:38:49;;;;;;;6.53;4.35;;;10.90;99.90;;;;;;5114077;27;20030;-82
2023/07/26 02:41:15;;;;;;;6.97;4.55;;;10.90;99.90;;;;;;5089774;27;20584;-82
2023/07/26 02:43:40;;;;;;;5.60;4.40;;;10.90;99.90;;;;;;5132672;27;20046;-82
2023/07/26 02:46:06;;;;;;;6.75;4.55;;;10.80;99.90;;;;;;5085725;27;20401;-82
2023/07/26 02:48:32;;;;;;;7.15;4.68;;;10.80;99.90;;;;;;5089491;27;20039;-82
2023/07/26 02:50:58;;;;;;;6.78;4.57;;;10.70;99.90;;;;;;5118441;27;20034;-82
2023/07/26 02:53:23;;;;;;;5.97;4.45;;;10.80;99.90;;;;;;5096173;27;20042;-82
2023/07/26 02:55:49;;;;;;;6.70;4.78;;;10.70;99.90;;;;;;5100423;27;20122;-81
2023/07/26 02:58:15;;;;;;;6.50;4.45;;;10.70;99.90;;;;;;5110848;27;20405;-82
2023/07/26 03:00:41;;;;;;;10.30;4.97;;;10.70;99.90;;;;;;5086297;28;20134;-82
2023/07/26 03:03:07;;;;;;;7.93;5.28;;;10.70;99.90;;;;;;5127854;27;20045;-81
2023/07/26 03:05:35;;;;;;;6.95;4.88;;;10.70;99.90;;;;;;5098190;27;20509;-82
2023/07/26 03:08:01;;;;;;;7.80;5.00;;;10.70;99.90;;;;;;5086531;27;20040;-82
2023/07/26 03:10:27;;;;;;;7.50;5.07;;;10.70;99.90;;;;;;5086568;27;20047;-82
2023/07/26 03:12:53;;;;;;;7.28;4.93;;;10.70;99.90;;;;;;5112560;27;20046;-82
2023/07/26 03:15:19;;;;;;;9.85;5.00;;;10.60;99.90;;;;;;5082771;27;20051;-82
2023/07/26 03:17:45;;;;;;;7.80;5.22;;;10.70;99.90;;;;;;5087344;27;20035;-82
2023/07/26 03:20:11;;;;;;;8.63;4.78;;;10.70;99.90;;;;;;5105531;27;20042;-82
2023/07/26 03:22:36;;;;;;;6.72;4.95;;;10.60;99.90;;;;;;5087499;27;20421;-82
2023/07/26 03:25:03;;;;;;;7.75;5.43;;;10.60;99.90;;;;;;5102569;27;20103;-82
2023/07/26 03:27:28;;;;;;;9.30;5.15;;;10.70;99.90;;;;;;5108484;27;20125;-82
2023/07/26 03:29:54;;;;;;;7.95;4.78;;;10.70;99.90;;;;;;5085991;27;20172;-82
2023/07/26 03:32:20;;;;;;;7.55;4.63;;;10.70;99.90;;;;;;5106180;27;20421;-82
2023/07/26 03:34:46;;;;;;;7.80;4.97;;;10.70;99.90;;;;;;5085126;27;20094;-82
2023/07/26 03:37:11;;;;;;;7.10;4.93;;;10.70;99.90;;;;;;5131590;27;20410;-82
2023/07/26 03:39:40;;;;;;;8.90;4.85;;;10.80;99.90;;;;;;5096071;27;20304;-82
2023/07/26 03:42:06;;;;;;;7.10;5.05;;;10.80;99.90;;;;;;5105635;27;20050;-82
2023/07/26 03:44:31;;;;;;;6.22;4.70;;;10.90;99.90;;;;;;5106394;27;20039;-82
2023/07/26 03:47:00;;;;;;;5.90;4.53;;;11.00;99.90;;;;;;5083482;27;20155;-82
2023/07/26 03:49:26;;;;;;;8.60;5.13;;;11.00;99.90;;;;;;5113609;27;20092;-82
2023/07/26 03:51:51;;;;;;;9.85;4.78;;;11.10;99.90;;;;;;5089082;27;20036;-82
2023/07/26 03:54:17;;;;;;;10.57;5.32;;;11.10;99.90;;;;;;5096975;28;20410;-83
2023/07/26 03:56:43;;;;;;;6.72;4.88;;;11.20;99.90;;;;;;5128155;27;20438;-83
2023/07/26 03:59:08;;;;;;;7.88;4.88;;;11.20;99.90;;;;;;5128605;27;20461;-83
2023/07/26 04:01:34;;;;;;;6.75;5.03;;;11.20;99.90;;;;;;5106364;27;20087;-83
2023/07/26 04:03:59;;;;;;;7.40;5.25;;;11.40;99.90;;;;;;5080090;27;20095;-83
2023/07/26 04:06:25;;;;;;;9.70;5.25;;;11.40;99.90;;;;;;5131460;27;20128;-82
2023/07/26 04:08:51;;;;;;;9.98;5.07;;;11.40;99.90;;;;;;5089791;27;20168;-83
2023/07/26 04:11:16;;;;;;;8.07;5.40;;;11.50;99.90;;;;;;5105435;27;20043;-83
2023/07/26 04:13:42;;;;;;;7.78;5.30;;;11.60;99.90;;;;;;5132294;27;20047;-83
2023/07/26 04:16:16;;;;;;;9.55;5.30;;;11.60;99.90;;;;;;5105166;27;20035;-82
2023/07/26 04:18:42;;;;;;;8.27;5.33;;;11.60;99.90;;;;;;5104394;27;20067;-83
2023/07/26 04:21:13;;;;;;;8.98;5.28;;;11.60;99.90;;;;;;5096594;27;20078;-82
2023/07/26 04:23:39;;;;;;;12.63;5.00;;;11.70;99.90;;;;;;5099777;27;20540;-83
2023/07/26 04:26:04;;;;;;;8.45;4.68;;;11.70;99.90;;;;;;5109079;27;20037;-82
2023/07/26 04:28:30;;;;;;;10.80;5.35;;;11.70;99.90;;;;;;5115548;27;20055;-83
2023/07/26 04:30:56;;;;;;;7.32;4.93;;;11.80;99.90;;;;;;5092249;27;20035;-82
2023/07/26 04:33:22;;;;;;;9.15;5.35;;;11.80;99.90;;;;;;5091002;27;20062;-82
2023/07/26 04:35:48;;;;;;;8.60;4.63;;;11.80;99.90;;;;;;5088738;27;20154;-82
2023/07/26 04:38:13;;;;;;;6.43;4.90;;;11.90;99.90;;;;;;5093788;27;20134;-83
2023/07/26 04:40:39;;;;;;;7.35;5.10;;;12.00;99.90;;;;;;5116122;27;20039;-82
2023/07/26 04:43:05;;;;;;;10.85;4.70;;;12.00;99.90;;;;;;5100575;27;20063;-83
2023/07/26 04:45:31;;;;;;;8.82;4.53;;;12.10;99.90;;;;;;5090741;28;20086;-82
2023/07/26 04:47:56;;;;;;;9.02;4.97;;;12.10;99.90;;;;;;5092217;28;20504;-82
2023/07/26 04:50:22;;;;;;;8.05;4.65;;;12.20;99.90;;;;;;5079296;28;20254;-82
2023/07/26 04:52:48;;;;;;;6.43;4.65;;;12.20;99.90;;;;;;5091494;28;20467;-82
2023/07/26 04:55:13;;;;;;;6.50;4.68;;;12.30;99.90;;;;;;5076569;28;20035;-81
2023/07/26 04:57:41;;;;;;;6.40;4.43;;;12.40;99.90;;;;;;5092009;28;20119;-82
2023/07/26 05:00:08;;;;;;;7.13;4.00;;;12.50;99.90;;;;;;5074695;28;20338;-82
2023/07/26 05:02:33;;;;;;;9.73;4.40;;;12.50;99.90;;;;;;5092797;28;20031;-82
2023/07/26 05:04:59;;;;;;;7.70;4.30;;;12.60;99.90;;;;;;5073077;28;20090;-82
2023/07/26 05:07:25;;;;;;;6.90;3.88;;;12.70;99.90;;;;;;5067859;28;20048;-82
2023/07/26 05:09:50;;;;;;;5.38;3.53;;;12.70;99.90;;;;;;5070943;28;20039;-83
2023/07/26 05:12:16;;;;;;;7.22;3.70;;;12.80;99.90;;;;;;5083570;28;20058;-83
2023/07/26 05:14:43;;;;;;;6.55;3.90;;;13.00;99.90;;;;;;5059707;28;20121;-82
2023/07/26 05:17:14;;;;;;;7.38;3.60;;;13.10;99.90;;;;;;5077637;28;20491;-82
2023/07/26 05:19:40;;;;;;;5.53;3.58;;;13.20;99.90;;;;;;5092786;28;20062;-82
2023/07/26 05:22:05;;;;;;;5.25;3.40;;;13.20;99.90;;;;;;5079514;28;20032;-82
2023/07/26 05:24:31;;;;;;;6.22;3.55;;;13.40;99.90;;;;;;5089285;28;20040;-82
2023/07/26 05:26:58;;;;;;;5.07;3.00;;;13.60;99.90;;;;;;5069724;28;20044;-82
2023/07/26 05:29:23;;;;;;;5.78;2.88;;;13.60;99.90;;;;;;5080131;28;20516;-82
2023/07/26 05:31:49;;;;;;;4.03;2.90;;;13.60;99.90;;;;;;5073760;28;20174;-82
2023/07/26 05:34:15;;;;;;;4.78;2.85;;;13.70;99.90;;;;;;5074309;28;20130;-82
2023/07/26 05:36:41;;;;;;;3.83;2.35;;;13.70;99.90;;;;;;5084127;28;20049;-82
2023/07/26 05:39:07;;;;;;;5.53;2.95;;;13.60;99.90;;;;;;5086225;28;20043;-82
2023/07/26 05:41:33;;;;;;;6.47;2.88;;;13.60;99.90;;;;;;5088270;28;20040;-83
2023/07/26 05:43:59;;;;;;;4.03;2.45;;;13.50;99.90;;;;;;5089996;27;20082;-84
2023/07/26 05:46:25;;;;;;;3.78;2.58;;;13.40;99.90;;;;;;5086784;27;20051;-83
2023/07/26 05:48:51;;;;;;;4.97;2.75;;;13.30;99.90;;;;;;5083148;27;20039;-83
2023/07/26 05:51:16;;;;;;;4.35;2.45;;;13.30;99.90;;;;;;5111603;27;20043;-83
2023/07/26 05:53:42;;;;;;;3.55;2.70;;;13.30;99.90;;;;;;5096609;27;20061;-83
2023/07/26 05:56:08;;;;;;;4.93;2.65;;;13.20;99.90;;;;;;5106779;27;20043;-83
2023/07/26 05:58:33;;;;;;;4.70;2.70;;;13.30;99.90;;;;;;5102280;27;20055;-83
2023/07/26 06:00:59;;;;;;;6.43;3.10;;;13.30;99.90;;;;;;5097691;27;20043;-84
2023/07/26 06:03:25;;;;;;;4.13;2.65;;;13.30;99.90;;;;;;5086613;27;20039;-84
2023/07/26 06:05:50;;;;;;;4.45;2.83;;;13.30;99.90;;;;;;5105202;27;20031;-83
2023/07/26 06:08:17;;;;;;;3.38;2.65;;;13.40;99.90;;;;;;5105023;27;20475;-83
2023/07/26 06:10:43;;;;;;;5.07;2.88;;;13.50;99.90;;;;;;5087545;27;20062;-83
2023/07/26 06:13:12;;;;;;;5.22;2.67;;;13.50;99.90;;;;;;5110119;27;20179;-83
2023/07/26 06:15:40;;;;;;;4.43;2.38;;;13.70;99.90;;;;;;5100567;27;20048;-83
2023/07/26 06:18:05;;;;;;;3.65;2.30;;;13.80;99.90;;;;;;5084303;28;20035;-83
2023/07/26 06:20:31;;;;;;;4.88;2.47;;;13.80;99.90;;;;;;5085551;28;20043;-83
2023/07/26 06:22:57;;;;;;;3.13;2.13;;;14.00;99.90;;;;;;5088834;27;20044;-82
2023/07/26 06:25:22;;;;;;;6.65;2.50;;;14.00;99.90;;;;;;5093597;27;20031;-83
2023/07/26 06:27:48;;;;;;;3.80;2.30;;;14.20;99.90;;;;;;5091364;27;20047;-83
2023/07/26 06:30:15;;;;;;;3.35;2.33;;;14.20;99.90;;;;;;5082308;27;20040;-83
2023/07/26 06:32:41;;;;;;;2.78;2.10;;;14.20;99.90;;;;;;5094249;27;20035;-83
2023/07/26 06:35:11;;;;;;;3.05;2.00;;;14.30;99.90;;;;;;5105203;27;20115;-84
2023/07/26 06:37:36;;;;;;;4.15;2.13;;;14.30;99.90;;;;;;5092861;28;20131;-83
2023/07/26 06:40:03;;;;;;;2.95;2.10;;;14.40;99.90;;;;;;5100756;27;20122;-84
2023/07/26 06:42:29;;;;;;;6.03;2.50;;;14.50;99.90;;;;;;5094666;28;20445;-85
2023/07/26 06:44:55;;;;;;;3.47;2.10;;;14.50;99.90;;;;;;5085178;28;20455;-83
2023/07/26 06:47:21;;;;;;;2.78;2.00;;;14.70;99.90;;;;;;5099066;27;20042;-83
2023/07/26 06:49:46;;;;;;;3.25;2.05;;;14.80;99.90;;;;;;5090047;27;20472;-83
2023/07/26 06:52:12;;;;;;;4.93;2.05;;;15.00;99.90;;;;;;5099215;27;20030;-83
2023/07/26 06:54:38;;;;;;;3.70;2.30;;;15.30;99.90;;;;;;5089483;27;20049;-83
2023/07/26 06:57:04;;;;;;;6.03;2.25;;;15.50;99.90;;;;;;5106747;27;20413;-82
2023/07/26 06:59:30;;;;;;;3.05;2.20;;;15.30;99.90;;;;;;5086071;27;20058;-83
2023/07/26 07:01:55;;;;;;;3.22;1.80;;;15.30;99.90;;;;;;5089507;28;21145;-83
2023/07/26 07:04:21;;;;;;;3.45;2.00;;;15.20;99.90;;;;;;5107495;27;20066;-83
2023/07/26 07:06:47;;;;;;;3.03;1.70;;;15.00;99.90;;;;;;5088150;28;20043;-84
2023/07/26 07:09:12;;;;;;;3.50;2.17;;;14.90;99.90;;;;;;5104876;27;20556;-84
2023/07/26 07:11:39;;;;;;;2.72;2.08;;;14.60;99.90;;;;;;5086369;28;20199;-83
2023/07/26 07:14:04;;;;;;;4.50;1.98;;;14.50;99.90;;;;;;5098981;28;20301;-83
2023/07/26 07:16:30;;;;;;;4.10;2.00;;;14.50;99.90;;;;;;5106773;28;20088;-84
2023/07/26 07:18:56;;;;;;;4.35;2.17;;;14.40;99.90;;;;;;5083464;28;20070;-83
2023/07/26 07:21:21;;;;;;;2.60;2.13;;;14.30;99.90;;;;;;5086308;28;20131;-83
2023/07/26 07:23:47;;;;;;;4.22;2.22;;;14.20;99.90;;;;;;5106405;28;20043;-83
2023/07/26 07:26:13;;;;;;;4.93;2.10;;;14.20;99.90;;;;;;5093677;28;20040;-83
2023/07/26 07:28:39;;;;;;;6.38;2.38;;;14.10;99.90;;;;;;5105165;28;20043;-84
2023/07/26 07:31:05;;;;;;;6.57;2.40;;;14.10;99.90;;;;;;5097943;28;20063;-83
2023/07/26 07:33:31;;;;;;;4.45;2.17;;;14.30;99.90;;;;;;5109214;27;20067;-83
2023/07/26 07:35:56;;;;;;;5.78;2.22;;;14.50;99.90;;;;;;5104553;27;20054;-84
2023/07/26 07:38:22;;;;;;;3.78;2.03;;;14.50;99.90;;;;;;5116157;27;20522;-83
2023/07/26 07:40:48;;;;;;;3.08;2.10;;;14.60;99.90;;;;;;5117088;27;20043;-83
2023/07/26 07:43:13;;;;;;;2.50;2.03;;;14.80;99.90;;;;;;5126169;27;20050;-83
2023/07/26 07:45:40;;;;;;;5.68;2.10;;;14.80;99.90;;;;;;5108730;27;20126;-83
2023/07/26 07:48:06;;;;;;;3.95;2.20;;;14.80;99.90;;;;;;5100996;27;20146;-83
2023/07/26 07:50:32;;;;;;;4.40;2.20;;;15.00;99.90;;;;;;5104657;27;20133;-83
2023/07/26 07:52:58;;;;;;;4.05;2.10;;;14.90;99.90;;;;;;5110807;27;20042;-83
2023/07/26 07:55:24;;;;;;;4.10;2.60;;;14.90;99.90;;;;;;5093525;27;20096;-83
2023/07/26 07:57:49;;;;;;;2.72;2.10;;;15.10;99.90;;;;;;5135922;27;20130;-83
2023/07/26 08:00:15;;;;;;;5.45;2.53;;;15.40;99.90;;;;;;5112898;27;20732;-83
2023/07/26 08:02:41;;;;;;;4.60;2.42;;;15.70;99.90;;;;;;5096272;27;20031;-82
2023/07/26 08:05:07;;;;;;;4.18;2.47;;;15.80;99.90;;;;;;5100358;27;20042;-82
2023/07/26 08:07:33;;;;;;;3.58;2.25;;;16.00;99.90;;;;;;5108090;27;20043;-83
2023/07/26 08:09:59;;;;;;;3.30;2.50;;;16.20;99.90;;;;;;5090779;27;20121;-82
2023/07/26 08:12:28;;;;;;;2.35;1.80;;;16.30;99.90;;;;;;5109152;27;20481;-82
2023/07/26 08:14:53;;;;;;;3.20;1.80;;;16.30;99.90;;;;;;5096457;27;20078;-83
2023/07/26 08:17:19;;;;;;;3.47;1.90;;;16.10;99.90;;;;;;5113332;27;20394;-82
2023/07/26 08:19:46;;;;;;;4.15;2.00;;;16.20;99.90;;;;;;5119940;27;20039;-82
2023/07/26 08:22:12;;;;;;;3.55;2.03;;;16.10;99.90;;;;;;5108474;27;20039;-82
2023/07/26 08:24:37;;;;;;;2.60;1.58;;;16.20;99.90;;;;;;5112253;27;20409;-82
2023/07/26 08:27:06;;;;;;;2.08;1.50;;;16.60;99.90;;;;;;5109186;27;20122;-82
2023/07/26 08:29:32;;;;;;;1.42;1.27;;;16.40;99.90;;;;;;5089248;27;20035;-82
2023/07/26 08:31:58;;;;;;;1.92;1.45;;;16.50;99.90;;;;;;5112163;27;20048;-82
2023/07/26 08:34:23;;;;;;;2.85;1.50;;;16.40;99.90;;;;;;5099092;27;20060;-81
2023/07/26 08:36:49;;;;;;;5.57;1.60;;;16.70;99.90;;;;;;5112989;27;20047;-82
2023/07/26 08:39:15;;;;;;;2.92;1.70;;;16.70;99.90;;;;;;5115433;27;20046;-82
2023/07/26 08:41:41;;;;;;;2.10;1.83;;;17.20;99.90;;;;;;5097250;27;20038;-81
2023/07/26 08:44:09;;;;;;;3.22;1.90;;;17.50;99.90;;;;;;5113416;27;20489;-82
2023/07/26 08:46:39;;;;;;;3.63;1.90;;;17.50;99.90;;;;;;5096621;27;20529;-82
2023/07/26 08:49:05;;;;;;;2.95;2.15;;;17.20;99.90;;;;;;5087299;27;20499;-82
2023/07/26 08:51:32;;;;;;;2.83;2.03;;;16.70;99.90;;;;;;5091237;27;20193;-82
2023/07/26 08:53:58;;;;;;;4.80;2.10;;;16.90;99.90;;;;;;5091615;28;20059;-81
2023/07/26 08:56:27;;;;;;;2.85;1.92;;;16.80;99.90;;;;;;5108355;27;20035;-82
2023/07/26 08:58:53;;;;;;;2.63;1.90;;;17.00;99.90;;;;;;5086020;27;20040;-82
2023/07/26 09:01:19;;;;;;;2.35;2.10;;;16.90;99.90;;;;;;5085827;27;20042;-82
2023/07/26 09:03:45;;;;;;;2.10;1.80;;;17.10;99.90;;;;;;5090620;27;20074;-82
2023/07/26 09:06:10;;;;;;;2.75;1.77;;;17.20;99.90;;;;;;5112405;27;20058;-82
2023/07/26 09:08:36;;;;;;;2.63;1.90;;;17.50;99.90;;;;;;5094954;27;20095;-82
2023/07/26 09:11:20;;;;;;;2.72;2.10;;;17.30;99.90;;;;;;5097166;27;20048;-82
2023/07/26 09:13:57;;;;;;;5.20;2.30;;;17.20;99.90;;;;;;5106491;27;20391;-82
2023/07/26 09:16:31;;;;;;;3.38;2.35;;;17.00;99.90;;;;;;5080842;28;20328;-82
2023/07/26 09:19:00;;;;;;;3.53;2.20;;;17.40;99.90;;;;;;5091967;27;20039;-82
2023/07/26 09:21:31;;;;;;;2.75;1.90;;;17.40;99.90;;;;;;5088148;27;20494;-82
2023/07/26 09:23:58;;;;;;;4.97;2.40;;;17.40;99.90;;;;;;5112590;27;20907;-82
2023/07/26 09:26:41;;;;;;;4.25;2.10;;;18.00;99.90;;;;;;5090228;27;20146;-82
2023/07/26 09:29:12;;;;;;;4.20;1.92;;;18.60;99.90;;;;;;5101834;27;20450;-82
2023/07/26 09:31:42;;;;;;;3.85;2.00;;;18.40;99.90;;;;;;5090727;27;20043;-82
2023/07/26 09:34:12;;;;;;;2.75;2.00;;;18.10;99.90;;;;;;5106756;27;20051;-82
2023/07/26 09:36:48;;;;;;;3.38;2.10;;;18.10;99.90;;;;;;5088755;27;20529;-82
2023/07/26 09:39:15;;;;;;;3.05;1.65;;;18.20;99.90;;;;;;5102746;27;20972;-82
2023/07/26 09:41:42;;;;;;;2.75;1.83;;;18.00;99.90;;;;;;5101267;27;20043;-82
2023/07/26 09:44:18;;;;;;;3.88;2.30;;;18.60;99.90;;;;;;5102941;27;20040;-82
2023/07/26 09:46:52;;;;;;;3.55;2.30;;;18.10;99.90;;;;;;5088464;27;20039;-82
2023/07/26 09:49:22;;;;;;;5.03;2.08;;;18.40;99.90;;;;;;5096066;27;20436;-82
2023/07/26 09:51:53;;;;;;;3.33;1.92;;;18.60;99.90;;;;;;5087599;27;20035;-81
2023/07/26 09:54:20;;;;;;;4.72;1.98;;;18.90;99.90;;;;;;5119235;27;20503;-83
2023/07/26 09:56:46;;;;;;;3.40;2.05;;;18.00;99.90;;;;;;5090590;27;20122;-85
2023/07/26 09:59:13;;;;;;;4.97;1.90;;;17.10;99.90;;;;;;5095735;27;20031;-86
2023/07/26 10:01:44;;;;;;;3.25;1.63;;;16.00;99.90;;;;;;5102190;27;20032;-85
2023/07/26 10:04:16;;;;;;;3.70;2.00;;;15.90;99.90;;;;;;5094909;27;20100;-85
2023/07/26 10:06:43;;;;;;;3.50;2.17;;;15.90;99.90;;;;;;5085733;27;20043;-85
2023/07/26 10:09:14;;;;;;;4.55;2.47;;;16.10;99.90;;;;;;5102553;27;20080;-84
2023/07/26 10:11:42;;;;;;;4.38;2.70;;;16.20;99.90;;;;;;5089962;27;20535;-84
2023/07/26 10:14:10;;;;;;;6.75;3.00;;;16.20;99.90;;;;;;5110599;27;20556;-83
2023/07/26 10:16:36;;;;;;;4.50;2.80;;;16.60;99.90;;;;;;5099961;27;20123;-83
2023/07/26 10:19:03;;;;;;;4.97;2.90;;;17.10;99.90;;;;;;5097121;27;20451;-83
2023/07/26 10:21:30;;;;;;;4.82;2.92;;;17.50;99.90;;;;;;5101698;27;20044;-83
2023/07/26 10:23:58;;;;;;;4.25;2.92;;;17.80;99.90;;;;;;5088438;28;20412;-84
2023/07/26 10:26:29;;;;;;;5.85;2.75;;;17.70;99.90;;;;;;5082524;27;20050;-83
2023/07/26 10:28:59;;;;;;;3.47;2.50;;;17.60;99.90;;;;;;5105061;27;20043;-83
2023/07/26 10:31:34;;;;;;;4.03;2.65;;;17.80;99.90;;;;;;5084785;27;20786;-82
2023/07/26 10:34:00;;;;;;;6.03;3.05;;;18.50;99.90;;;;;;5101603;27;20180;-83
2023/07/26 10:36:33;;;;;;;3.15;2.60;;;18.60;99.90;;;;;;5100968;27;20063;-82
2023/07/26 10:39:11;;;;;;;4.53;2.60;;;18.30;99.90;;;;;;5100195;27;20028;-83
2023/07/26 10:41:46;;;;;;;2.72;1.98;;;18.10;99.90;;;;;;5091677;27;20035;-82
2023/07/26 10:44:12;;;;;;;;;;;17.90;99.90;;;;;;5086912;28;20134;-83
2023/07/26 10:46:50;;;;;;;2.10;1.70;;;18.00;99.90;;;;;;5092051;27;20072;-82
2023/07/26 10:49:20;;;;;;;2.47;1.67;;;18.10;99.90;;;;;;5102358;27;20043;-82
2023/07/26 10:52:03;;;;;;;2.55;1.80;;;18.20;99.90;;;;;;5097784;27;20150;-82
2023/07/26 10:54:36;;;;;;;2.63;1.67;;;18.60;99.90;;;;;;5097846;27;20044;-82
2023/07/26 10:57:46;;;;;;;3.75;1.90;;;19.10;99.90;;;;;;5101920;27;20153;-82
2023/07/26 11:00:18;;;;;;;3.45;1.80;;;18.80;99.90;;;;;;5013503;28;20045;-82
2023/07/26 11:02:48;;;;;;;2.53;1.50;;;19.20;99.90;;;;;;5081810;27;20494;-82
2023/07/26 11:05:19;;;;;;;2.92;1.60;;;19.50;99.90;;;;;;5101474;27;20044;-81
2023/07/26 11:08:02;;;;;;;2.50;1.70;;;19.40;99.90;;;;;;5105086;27;20042;-82
2023/07/26 11:10:36;;;;;;;3.08;1.95;;;20.10;99.90;;;;;;5101531;28;20043;-81
2023/07/26 11:13:06;;;;;;;3.17;1.92;;;19.60;99.90;;;;;;5108821;28;20041;-81
2023/07/26 11:15:33;;;;;;;3.17;1.90;;;19.60;99.90;;;;;;5086607;28;20061;-81
2023/07/26 11:17:59;;;;;;;3.53;1.83;;;19.70;99.90;;;;;;5100764;28;20127;-81
2023/07/26 11:20:25;;;;;;;2.15;1.40;;;20.40;99.90;;;;;;5093041;28;20452;-82
2023/07/26 11:22:52;;;;;;;4.53;1.40;;;19.70;99.90;;;;;;5092254;28;20189;-82
2023/07/26 11:25:19;;;;;;;2.75;1.27;;;19.10;99.90;;;;;;5108967;28;20042;-81
2023/07/26 11:27:48;;;;;;;5.18;0.70;;;18.90;99.90;;;;;;5105944;28;20043;-82
2023/07/26 11:30:20;;;;;;;1.80;1.00;;;17.90;99.90;;;;;;5104613;28;20040;-82
2023/07/26 11:32:47;;;;;;;1.20;0.75;;;16.90;99.90;;;;;;5078760;28;20130;-81
2023/07/26 11:35:17;;;;;;;1.63;0.70;;;16.60;99.90;;;;;;5104022;28;20048;-80
2023/07/26 11:37:53;;;;;;;1.35;0.93;;;16.00;99.90;;;;;;5118476;27;20040;-81
2023/07/26 11:40:20;;;;;;;0.88;0.80;;;15.70;99.90;;;;;;5105596;28;20118;-85
2023/07/26 11:42:46;;;;;;;1.50;1.20;;;15.50;99.90;;;;;;5101531;28;20060;-84
2023/07/26 11:45:13;;;;;;;2.75;1.08;;;15.00;99.90;;;;;;5086220;28;20040;-85
2023/07/26 11:47:39;;;;;;;2.40;1.30;;;14.80;99.90;;;;;;5084797;28;20032;-85
2023/07/26 11:50:08;;;;;;;2.55;1.27;;;14.80;99.90;;;;;;5088063;28;20048;-86
2023/07/26 11:52:34;;;;;;;1.63;1.10;;;14.90;99.90;;;;;;5094063;28;20267;-85
2023/07/26 11:55:01;;;;;;;1.88;1.38;;;14.70;99.90;;;;;;5100071;28;20048;-86
2023/07/26 11:57:28;;;;;;;1.88;1.30;;;14.60;99.90;;;;;;5124132;27;20066;-85
2023/07/26 12:00:04;;;;;;;3.97;1.60;;;14.70;99.90;;;;;;5098203;28;20032;-85
2023/07/26 12:02:30;;;;;;;2.65;1.50;;;14.60;99.90;;;;;;5084272;28;20039;-85
2023/07/26 12:05:15;;;;;;;3.85;1.50;;;14.60;99.90;;;;;;5107064;28;20151;-85
2023/07/26 12:07:52;;;;;;;5.18;1.75;;;14.80;99.90;;;;;;5106582;28;20557;-84
2023/07/26 12:10:29;;;;;;;3.47;1.83;;;15.10;99.90;;;;;;5083530;28;20055;-84
2023/07/26 12:12:56;;;;;;;3.30;1.38;;;15.60;99.90;;;;;;5102108;28;20040;-85
2023/07/26 12:15:23;;;;;;;4.05;1.83;;;16.20;99.90;;;;;;5084072;28;20502;-85
2023/07/26 12:17:58;;;;;;;3.58;1.38;;;16.50;99.90;;;;;;5096102;27;20058;-85
2023/07/26 12:20:25;;;;;;;2.67;1.33;;;16.60;99.90;;;;;;5084924;27;20042;-84
2023/07/26 12:22:52;;;;;;;3.17;1.85;;;16.90;99.90;;;;;;5087403;27;20031;-83
2023/07/26 12:25:19;;;;;;;2.40;1.60;;;17.30;99.90;;;;;;5109712;27;20471;-84
2023/07/26 12:27:48;;;;;;;2.95;1.85;;;18.00;99.90;;;;;;5103593;27;20043;-84
2023/07/26 12:30:16;;;;;;;4.97;1.80;;;18.80;99.90;;;;;;5095608;27;20058;-84
2023/07/26 12:32:44;;;;;;;3.42;1.70;;;18.30;99.90;;;;;;5093316;27;20499;-84
2023/07/26 12:35:37;;;;;;;2.45;1.83;;;17.70;99.90;;;;;;5081791;27;20044;-84
2023/07/26 12:38:14;;;;;;;3.25;1.30;;;17.50;99.90;;;;;;5108704;27;20043;-83
2023/07/26 12:40:40;;;;;;;2.50;1.60;;;18.50;99.90;;;;;;5091094;27;20382;-83
2023/07/26 12:43:26;;;;;;;3.40;1.63;;;18.80;99.90;;;;;;5115256;27;20055;-83
2023/07/26 12:45:58;;;;;;;2.95;1.40;;;19.00;99.90;;;;;;5105193;27;20062;-83
2023/07/26 12:48:28;;;;;;;3.38;1.50;;;19.20;99.90;;;;;;5097878;27;20117;-82
2023/07/26 12:50:55;;;;;;;4.70;1.70;;;19.40;99.90;;;;;;5113081;27;20038;-82